Time;durP1;ratioP1;P1;durP2;ratioP2;P2;SDS_P1;SDS_P2;PMS_P1;PMS_P2;Temp;Humidity;BMP_temperature;BMP_pressure;BME280_temperature;BME280_humidity;BME280_pressure;Samples;Min_cycle;Max_cycle;Signal;HPM_P1;HPM_P2
2024/03/26 00:02:24;;;;;;;6.57;3.13;;;;;6.80;99042.00;;;;10336698;28;20305;-84
2024/03/26 00:07:25;;;;;;;3.83;2.53;;;;;6.80;99042.00;;;;10358005;28;20361;-84
2024/03/26 00:12:26;;;;;;;10.33;3.00;;;;;6.80;99033.00;;;;10362807;28;20314;-84
2024/03/26 00:17:27;;;;;;;4.83;2.67;;;;;6.70;99018.00;;;;10342188;28;20227;-85
2024/03/26 00:22:28;;;;;;;4.07;3.00;;;;;6.70;99022.00;;;;10344074;28;20622;-85
2024/03/26 00:27:29;;;;;;;7.90;3.10;;;;;6.60;99007.00;;;;10348738;28;20227;-84
2024/03/26 00:32:30;;;;;;;4.50;2.70;;;;;6.50;98991.00;;;;10324477;28;20914;-84
2024/03/26 00:37:32;;;;;;;8.83;2.97;;;;;6.40;98995.00;;;;10353960;28;20230;-85
2024/03/26 00:42:33;;;;;;;5.73;3.13;;;;;6.40;98989.00;;;;10365546;28;20229;-84
2024/03/26 00:47:34;;;;;;;4.27;2.73;;;;;6.40;98978.00;;;;10354895;28;20243;-84
2024/03/26 00:52:35;;;;;;;8.23;3.03;;;;;6.30;98980.00;;;;10336951;28;20226;-84
2024/03/26 00:57:37;;;;;;;5.63;3.30;;;;;6.30;98964.00;;;;10363443;28;20301;-85
2024/03/26 01:02:38;;;;;;;6.23;3.13;;;;;6.20;98966.00;;;;10369183;28;20249;-84
2024/03/26 01:07:39;;;;;;;9.60;3.37;;;;;6.10;98955.00;;;;10337566;28;20235;-84
2024/03/26 01:12:40;;;;;;;3.70;2.77;;;;;6.10;98945.00;;;;10351035;28;20220;-79
2024/03/26 01:17:41;;;;;;;4.30;2.57;;;;;5.90;98943.00;;;;10358468;28;20309;-78
2024/03/26 01:22:42;;;;;;;6.33;3.27;;;;;5.80;98938.00;;;;10334272;28;20227;-78
2024/03/26 01:27:44;;;;;;;3.60;3.07;;;;;5.80;98933.00;;;;10335364;28;20226;-78
2024/03/26 01:32:45;;;;;;;9.30;3.40;;;;;5.70;98920.00;;;;10368624;28;20235;-79
2024/03/26 01:37:46;;;;;;;5.67;2.80;;;;;5.70;98921.00;;;;10351516;28;20273;-78
2024/03/26 01:42:48;;;;;;;6.47;3.33;;;;;5.50;98905.00;;;;10378010;28;20214;-79
2024/03/26 01:47:50;;;;;;;7.23;3.37;;;;;5.50;98895.00;;;;10329377;28;20314;-79
2024/03/26 01:52:51;;;;;;;4.60;3.20;;;;;5.50;98889.00;;;;10349968;28;20793;-79
2024/03/26 01:57:52;;;;;;;5.47;3.50;;;;;5.40;98884.00;;;;10351427;28;20260;-79
2024/03/26 02:02:53;;;;;;;6.33;3.30;;;;;5.40;98867.00;;;;10367404;28;20302;-82
2024/03/26 02:07:56;;;;;;;7.13;3.87;;;;;5.40;98853.00;;;;10346992;28;20261;-82
2024/03/26 02:12:57;;;;;;;9.80;3.90;;;;;5.40;98850.00;;;;10362176;28;20302;-82
2024/03/26 02:17:58;;;;;;;5.43;3.10;;;;;5.40;98852.00;;;;10379873;28;20228;-82
2024/03/26 02:22:59;;;;;;;7.83;3.90;;;;;5.30;98837.00;;;;10354607;28;20225;-83
2024/03/26 02:28:00;;;;;;;4.53;2.90;;;;;5.30;98837.00;;;;10372164;28;20238;-83
2024/03/26 02:33:02;;;;;;;4.90;2.97;;;;;5.20;98825.00;;;;10376164;28;20253;-84
2024/03/26 02:38:03;;;;;;;4.73;3.30;;;;;5.20;98819.00;;;;10332129;28;20290;-82
2024/03/26 02:43:04;;;;;;;7.67;3.07;;;;;5.10;98812.00;;;;10354154;28;20697;-82
2024/03/26 02:48:06;;;;;;;6.07;3.20;;;;;5.00;98807.00;;;;10329324;28;20675;-82
2024/03/26 02:53:08;;;;;;;7.10;3.53;;;;;4.90;98785.00;;;;10347066;28;20258;-82
2024/03/26 02:58:09;;;;;;;4.73;2.77;;;;;4.80;98788.00;;;;10359301;28;20218;-82
2024/03/26 03:03:10;;;;;;;7.87;3.73;;;;;4.70;98792.00;;;;10338704;28;20304;-82
2024/03/26 03:08:11;;;;;;;4.57;2.87;;;;;4.60;98777.00;;;;10353876;28;20262;-83
2024/03/26 03:13:12;;;;;;;6.50;2.93;;;;;4.60;98767.00;;;;10352255;28;20270;-82
2024/03/26 03:18:13;;;;;;;8.07;4.20;;;;;4.50;98765.00;;;;10353324;28;20878;-81
2024/03/26 03:23:14;;;;;;;7.27;3.00;;;;;4.40;98767.00;;;;10336622;28;20297;-81
2024/03/26 03:28:15;;;;;;;14.10;3.27;;;;;4.40;98767.00;;;;10335558;28;20281;-82
2024/03/26 03:33:16;;;;;;;7.43;3.20;;;;;4.40;98752.00;;;;10347457;28;20821;-81
2024/03/26 03:38:18;;;;;;;7.70;3.60;;;;;4.40;98749.00;;;;10346097;28;20250;-82
2024/03/26 03:43:19;;;;;;;6.57;3.60;;;;;4.40;98746.00;;;;10342668;28;20302;-81
2024/03/26 03:48:20;;;;;;;5.90;3.30;;;;;4.40;98736.00;;;;10358667;28;21300;-82
2024/03/26 03:53:21;;;;;;;4.83;3.30;;;;;4.40;98742.00;;;;10368033;28;20288;-81
2024/03/26 03:58:22;;;;;;;9.10;3.73;;;;;4.30;98745.00;;;;10348411;28;20249;-82
2024/03/26 04:03:23;;;;;;;7.57;3.47;;;;;4.20;98749.00;;;;10353194;28;20230;-82
2024/03/26 04:08:24;;;;;;;3.80;3.00;;;;;4.10;98732.00;;;;10331775;28;20219;-82
2024/03/26 04:13:25;;;;;;;5.37;3.13;;;;;4.00;98731.00;;;;10361027;28;20258;-82
2024/03/26 04:18:27;;;;;;;5.50;2.67;;;;;4.00;98727.00;;;;10359016;28;20657;-82
2024/03/26 04:23:28;;;;;;;6.80;3.40;;;;;3.90;98727.00;;;;10346102;28;20262;-85
2024/03/26 04:28:29;;;;;;;5.43;3.10;;;;;3.90;98715.00;;;;10353513;28;20306;-85
2024/03/26 04:33:30;;;;;;;5.30;3.10;;;;;3.90;98718.00;;;;10354285;28;20234;-84
2024/03/26 04:38:31;;;;;;;5.93;2.67;;;;;3.90;98708.00;;;;10351482;28;21010;-84
2024/03/26 04:43:32;;;;;;;5.23;3.30;;;;;3.90;98707.00;;;;10325752;28;20217;-84
2024/03/26 04:48:33;;;;;;;6.50;3.73;;;;;3.90;98708.00;;;;10355767;28;20333;-85
2024/03/26 04:53:34;;;;;;;9.90;3.07;;;;;3.80;98711.00;;;;10335708;28;20241;-84
2024/03/26 04:58:36;;;;;;;5.90;3.40;;;;;3.80;98707.00;;;;10340175;28;20337;-84
2024/03/26 05:03:37;;;;;;;5.73;3.30;;;;;3.70;98702.00;;;;10344331;28;20674;-84
2024/03/26 05:08:40;;;;;;;7.07;3.10;;;;;3.70;98705.00;;;;10371102;28;20226;-85
2024/03/26 05:13:42;;;;;;;5.30;3.00;;;;;3.60;98709.00;;;;10357495;28;20246;-85
2024/03/26 05:18:43;;;;;;;9.77;2.50;;;;;3.60;98697.00;;;;10347379;28;20662;-85
2024/03/26 05:23:44;;;;;;;7.70;3.43;;;;;3.60;98699.00;;;;10357740;28;20230;-84
2024/03/26 05:28:45;;;;;;;6.73;3.30;;;;;3.60;98696.00;;;;10331258;28;20691;-85
2024/03/26 05:33:47;;;;;;;4.63;3.10;;;;;3.60;98701.00;;;;10350393;28;20225;-81
2024/03/26 05:38:48;;;;;;;6.73;3.37;;;;;3.60;98698.00;;;;10360536;28;20310;-81
2024/03/26 05:43:52;;;;;;;7.13;3.20;;;;;3.70;98695.00;;;;10359316;28;20227;-82
2024/03/26 05:48:53;;;;;;;6.30;2.90;;;;;3.80;98688.00;;;;10368056;28;20255;-81
2024/03/26 05:53:55;;;;;;;4.70;3.27;;;;;3.90;98677.00;;;;10355060;28;20223;-82
2024/03/26 05:58:56;;;;;;;6.90;3.33;;;;;4.10;98684.00;;;;10344191;28;20872;-82
2024/03/26 06:03:57;;;;;;;5.10;3.60;;;;;4.30;98691.00;;;;10359795;28;20225;-81
2024/03/26 06:09:02;;;;;;;10.10;3.10;;;;;4.40;98683.00;;;;10370280;28;20658;-80
2024/03/26 06:14:03;;;;;;;7.90;4.00;;;;;4.50;98691.00;;;;10366385;28;20257;-82
2024/03/26 06:19:05;;;;;;;11.33;3.27;;;;;4.60;98685.00;;;;10362547;28;20281;-82
2024/03/26 06:24:06;;;;;;;6.80;3.50;;;;;4.70;98689.00;;;;10355885;28;20222;-81
2024/03/26 06:29:07;;;;;;;9.73;4.00;;;;;4.80;98686.00;;;;10354587;28;20811;-82
2024/03/26 06:34:08;;;;;;;9.20;3.43;;;;;4.90;98687.00;;;;10395758;28;20227;-81
2024/03/26 06:39:10;;;;;;;11.57;3.90;;;;;5.20;98671.00;;;;10348873;28;20218;-83
2024/03/26 06:44:11;;;;;;;8.27;3.10;;;;;5.40;98675.00;;;;10368128;28;20223;-84
2024/03/26 06:49:12;;;;;;;10.17;3.57;;;;;5.60;98677.00;;;;10349538;28;20230;-83
2024/03/26 06:54:13;;;;;;;4.80;2.97;;;;;5.80;98677.00;;;;10366248;28;20269;-84
2024/03/26 06:59:15;;;;;;;8.13;3.43;;;;;6.00;98671.00;;;;10380502;28;20923;-84
2024/03/26 07:04:16;;;;;;;7.20;3.40;;;;;6.20;98671.00;;;;10373408;28;20246;-83
2024/03/26 07:09:17;;;;;;;13.40;3.47;;;;;6.40;98660.00;;;;10357317;28;20237;-85
2024/03/26 07:14:19;;;;;;;5.93;3.20;;;;;6.60;98671.00;;;;10371474;28;21098;-84
2024/03/26 07:19:21;;;;;;;15.00;3.63;;;;;6.70;98656.00;;;;10374260;28;20347;-84
2024/03/26 07:24:22;;;;;;;5.27;3.30;;;;;6.90;98654.00;;;;10378929;28;20218;-83
2024/03/26 07:29:23;;;;;;;6.47;3.20;;;;;7.10;98648.00;;;;10386726;28;20222;-83
2024/03/26 07:34:24;;;;;;;4.90;3.40;;;;;7.30;98636.00;;;;10370639;28;20225;-84
2024/03/26 07:39:25;;;;;;;5.73;3.07;;;;;7.50;98640.00;;;;10358437;28;20250;-85
2024/03/26 07:44:26;;;;;;;6.77;3.23;;;;;7.60;98635.00;;;;10374396;28;20305;-84
2024/03/26 07:49:27;;;;;;;5.10;3.43;;;;;7.70;98619.00;;;;10366773;28;20593;-82
2024/03/26 07:54:32;;;;;;;6.17;3.23;;;;;8.00;98628.00;;;;10343041;28;20219;-82
2024/03/26 07:59:33;;;;;;;6.33;3.00;;;;;8.20;98625.00;;;;10395037;28;20219;-83
2024/03/26 08:04:34;;;;;;;8.20;2.87;;;;;8.60;98631.00;;;;10370806;28;20229;-82
2024/03/26 08:09:35;;;;;;;7.33;3.00;;;;;8.80;98627.00;;;;10343786;28;20745;-83
2024/03/26 08:14:37;;;;;;;6.73;3.23;;;;;9.10;98621.00;;;;10375470;28;20231;-83
2024/03/26 08:19:38;;;;;;;4.43;3.10;;;;;9.20;98627.00;;;;10364211;28;20227;-83
2024/03/26 08:24:39;;;;;;;5.03;3.00;;;;;9.30;98624.00;;;;10358941;28;20230;-82
2024/03/26 08:29:40;;;;;;;5.60;3.30;;;;;9.40;98614.00;;;;10362122;28;20254;-83
2024/03/26 08:34:41;;;;;;;5.47;3.03;;;;;9.40;98621.00;;;;10367189;28;20222;-82
2024/03/26 08:39:43;;;;;;;9.43;3.50;;;;;9.50;98618.00;;;;10358737;28;20227;-82
2024/03/26 08:44:44;;;;;;;6.87;2.63;;;;;9.60;98609.00;;;;10380588;28;20701;-82
2024/03/26 08:49:45;;;;;;;4.77;3.07;;;;;9.90;98600.00;;;;10351133;28;20230;-83
2024/03/26 08:54:46;;;;;;;5.40;3.37;;;;;10.10;98595.00;;;;10382385;28;20597;-83
2024/03/26 08:59:47;;;;;;;5.00;3.10;;;;;10.30;98595.00;;;;10393305;28;20261;-81
2024/03/26 09:04:49;;;;;;;5.97;2.93;;;;;10.50;98587.00;;;;10369661;28;20764;-81
2024/03/26 09:09:51;;;;;;;4.27;2.67;;;;;10.70;98590.00;;;;10382164;28;20226;-82
2024/03/26 09:14:52;;;;;;;7.87;3.03;;;;;10.90;98584.00;;;;10395012;28;20933;-83
2024/03/26 09:19:53;;;;;;;6.13;2.87;;;;;11.20;98595.00;;;;10376941;28;20226;-82
2024/03/26 09:24:54;;;;;;;4.60;2.57;;;;;11.30;98598.00;;;;10378996;28;20293;-82
2024/03/26 09:29:56;;;;;;;5.77;2.60;;;;;11.20;98595.00;;;;10369329;28;20222;-83
2024/03/26 09:34:58;;;;;;;4.37;3.00;;;;;11.20;98586.00;;;;10354404;28;20223;-83
2024/03/26 09:39:59;;;;;;;3.97;2.57;;;;;11.20;98584.00;;;;10363264;28;20238;-83
2024/03/26 09:45:00;;;;;;;8.73;2.77;;;;;11.40;98579.00;;;;10346748;28;20230;-83
2024/03/26 09:50:10;;;;;;;4.90;3.10;;;;;11.60;98573.00;;;;10362421;28;20227;-82
2024/03/26 09:55:13;;;;;;;7.77;2.90;;;;;11.70;98562.00;;;;10367254;28;20304;-83
2024/03/26 10:00:14;;;;;;;5.23;2.43;;;;;11.90;98554.00;;;;10339259;28;20739;-82
2024/03/26 10:05:16;;;;;;;5.23;2.90;;;;;12.00;98553.00;;;;10356425;28;20225;-84
2024/03/26 10:10:18;;;;;;;6.30;2.73;;;;;12.20;98552.00;;;;10358577;28;20234;-86
2024/03/26 10:15:19;;;;;;;3.53;2.40;;;;;12.60;98547.00;;;;10357758;28;20229;-86
2024/03/26 10:20:20;;;;;;;5.33;2.73;;;;;13.00;98543.00;;;;10388459;28;21017;-86
2024/03/26 10:25:21;;;;;;;6.03;3.00;;;;;13.20;98543.00;;;;10354678;28;20298;-86
2024/03/26 10:30:23;;;;;;;7.60;3.40;;;;;13.10;98537.00;;;;10338166;28;20306;-87
2024/03/26 10:35:27;;;;;;;5.23;2.33;;;;;13.40;98524.00;;;;10384017;28;20247;-86
2024/03/26 10:40:36;;;;;;;7.67;2.80;;;;;13.70;98523.00;;;;10384040;28;20262;-86
2024/03/26 10:45:39;;;;;;;5.47;2.80;;;;;14.20;98524.00;;;;10376784;28;20225;-87
2024/03/26 10:51:00;;;;;;;6.70;2.70;;;;;14.70;98518.00;;;;10354732;28;20234;-87
2024/03/26 10:56:03;;;;;;;6.88;3.25;;;;;14.90;98508.00;;;;10386715;28;20218;-86
2024/03/26 11:01:08;;;;;;;6.13;3.25;;;;;15.20;98507.00;;;;10354797;28;20636;-86
2024/03/26 11:06:09;;;;;;;4.40;2.53;;;;;15.20;98510.00;;;;10374486;28;20269;-86
2024/03/26 11:11:13;;;;;;;3.72;2.65;;;;;15.20;98502.00;;;;10359955;28;21457;-87
2024/03/26 11:16:34;;;;;;;6.88;3.45;;;;;15.50;98501.00;;;;10383029;28;20219;-87
2024/03/26 11:21:42;;;;;;;5.10;3.05;;;;;15.70;98492.00;;;;10359800;28;21037;-82
2024/03/26 11:26:47;;;;;;;4.00;3.20;;;;;15.60;98490.00;;;;10377669;28;20230;-81
2024/03/26 11:31:48;;;;;;;7.35;2.92;;;;;15.50;98477.00;;;;10358375;28;20365;-82
2024/03/26 11:36:52;;;;;;;7.60;3.42;;;;;15.40;98475.00;;;;10343307;28;20219;-85
2024/03/26 11:41:54;;;;;;;4.63;2.75;;;;;15.50;98471.00;;;;10348699;28;20310;-81
2024/03/26 11:46:57;;;;;;;6.55;3.13;;;;;15.50;98465.00;;;;10361216;28;20214;-82
2024/03/26 11:51:58;;;;;;;9.68;3.22;;;;;15.50;98464.00;;;;10359056;28;20227;-82
2024/03/26 11:56:59;;;;;;;5.18;3.30;;;;;15.90;98458.00;;;;10351581;28;20332;-81
2024/03/26 12:02:02;;;;;;;7.78;4.03;;;;;16.30;98465.00;;;;10353125;28;20744;-81
2024/03/26 12:07:05;;;;;;;7.35;4.05;;;;;16.70;98452.00;;;;10334617;28;20578;-81
2024/03/26 12:12:09;;;;;;;8.00;3.25;;;;;17.20;98445.00;;;;10348399;28;20918;-82
2024/03/26 12:17:14;;;;;;;4.70;3.10;;;;;17.30;98445.00;;;;10366144;28;20218;-82
2024/03/26 12:22:19;;;;;;;8.15;3.67;;;;;17.20;98438.00;;;;10360285;28;20226;-81
2024/03/26 12:27:20;;;;;;;4.40;2.92;;;;;17.10;98432.00;;;;10345922;28;20222;-82
2024/03/26 12:32:26;;;;;;;7.82;3.28;;;;;17.00;98424.00;;;;10336061;28;20241;-87
2024/03/26 12:37:27;;;;;;;8.05;3.33;;;;;17.10;98411.00;;;;10341545;28;20312;-88
2024/03/26 12:42:31;;;;;;;5.45;2.67;;;;;17.40;98407.00;;;;10336105;28;20223;-87
2024/03/26 12:47:32;;;;;;;7.45;3.53;;;;;17.50;98400.00;;;;10355278;28;20289;-87
2024/03/26 12:52:39;;;;;;;9.30;3.60;;;;;17.70;98403.00;;;;10364092;28;20276;-86
2024/03/26 12:57:41;;;;;;;4.43;3.17;;;;;18.20;98379.00;;;;10360607;28;20265;-84
2024/03/26 13:02:42;;;;;;;5.30;3.05;;;;;18.30;98372.00;;;;10356580;28;20830;-87
2024/03/26 13:07:43;;;;;;;4.15;3.25;;;;;18.20;98368.00;;;;10354730;28;20305;-87
2024/03/26 13:12:44;;;;;;;6.80;3.17;;;;;18.10;98350.00;;;;10368474;28;20217;-87
2024/03/26 13:17:45;;;;;;;4.50;3.10;;;;;18.30;98342.00;;;;10345771;28;20343;-87
2024/03/26 13:22:48;;;;;;;7.78;2.95;;;;;18.60;98347.00;;;;10387394;28;20736;-88
2024/03/26 13:27:49;;;;;;;5.93;3.15;;;;;19.00;98340.00;;;;10303390;28;20247;-86
2024/03/26 13:32:51;;;;;;;8.73;3.55;;;;;19.40;98328.00;;;;10297811;28;20841;-87
2024/03/26 13:37:52;;;;;;;6.03;3.10;;;;;19.40;98313.00;;;;10321226;28;20242;-86
2024/03/26 13:42:53;;;;;;;6.50;4.15;;;;;19.90;98305.00;;;;10346564;28;20253;-82
2024/03/26 13:48:00;;;;;;;8.32;3.30;;;;;20.10;98297.00;;;;10337770;28;20266;-86
2024/03/26 13:53:07;;;;;;;5.22;2.63;;;;;20.00;98286.00;;;;10319765;28;20926;-84
2024/03/26 13:58:11;;;;;;;6.60;3.30;;;;;20.20;98278.00;;;;10356080;28;20314;-84
2024/03/26 14:03:12;;;;;;;6.93;3.50;;;;;19.70;98272.00;;;;10356141;28;20220;-85
2024/03/26 14:08:14;;;;;;;6.10;3.58;;;;;19.50;98265.00;;;;10347165;28;20270;-84
2024/03/26 14:13:15;;;;;;;8.70;4.03;;;;;19.80;98251.00;;;;10349854;28;20239;-84
2024/03/26 14:18:16;;;;;;;6.57;2.72;;;;;19.30;98249.00;;;;10389136;28;20426;-84
2024/03/26 14:23:17;;;;;;;7.00;3.40;;;;;18.70;98246.00;;;;10353261;28;20229;-85
2024/03/26 14:28:25;;;;;;;7.47;3.50;;;;;19.60;98228.00;;;;10396147;28;20295;-85
2024/03/26 14:33:26;;;;;;;6.53;3.55;;;;;19.10;98232.00;;;;10356812;28;20223;-84
2024/03/26 14:38:28;;;;;;;7.45;3.30;;;;;18.50;98232.00;;;;10398267;28;20214;-84
2024/03/26 14:43:29;;;;;;;6.60;2.80;;;;;18.10;98220.00;;;;10355290;28;20258;-85
2024/03/26 14:48:30;;;;;;;5.40;1.98;;;;;18.10;98208.00;;;;10354808;28;20223;-86
2024/03/26 14:53:31;;;;;;;4.53;2.08;;;;;17.90;98195.00;;;;10364504;28;20564;-83
2024/03/26 14:58:33;;;;;;;5.53;2.08;;;;;18.10;98197.00;;;;10359480;28;20243;-81
2024/03/26 15:03:34;;;;;;;5.45;2.20;;;;;18.10;98191.00;;;;10379807;28;20249;-83
2024/03/26 15:08:35;;;;;;;5.18;2.15;;;;;18.10;98175.00;;;;10358923;28;20226;-83
2024/03/26 15:13:41;;;;;;;5.10;2.42;;;;;18.10;98170.00;;;;10372206;28;20697;-85
2024/03/26 15:18:42;;;;;;;4.90;2.67;;;;;18.00;98165.00;;;;10371381;28;20353;-82
2024/03/26 15:23:43;;;;;;;6.15;1.90;;;;;17.40;98157.00;;;;10333469;28;20232;-81
2024/03/26 15:34:04;;;;;;;8.27;2.70;;;;;16.50;98140.00;;;;10325666;28;20277;-82
2024/03/26 15:39:08;;;;;;;7.70;2.20;;;;;16.20;98129.00;;;;10317764;28;20220;-82
2024/03/26 15:44:09;;;;;;;4.60;2.08;;;;;16.00;98125.00;;;;10301843;28;20591;-83
2024/03/26 15:49:10;;;;;;;4.30;1.73;;;;;15.90;98124.00;;;;10345649;28;20279;-83
2024/03/26 15:54:12;;;;;;;3.25;1.40;;;;;15.80;98114.00;;;;10313318;28;20227;-82
2024/03/26 15:59:13;;;;;;;5.32;1.40;;;;;15.70;98096.00;;;;10343886;28;20223;-82
2024/03/26 16:04:14;;;;;;;4.20;1.80;;;;;15.90;98094.00;;;;10330435;28;20269;-85
2024/03/26 16:09:17;;;;;;;4.45;1.52;;;;;16.00;98092.00;;;;10318617;28;20235;-84
2024/03/26 16:14:18;;;;;;;4.03;1.83;;;;;15.90;98089.00;;;;10371107;28;20242;-84
2024/03/26 16:19:20;;;;;;;5.55;1.58;;;;;15.90;98079.00;;;;10377659;28;20238;-83
2024/03/26 16:24:22;;;;;;;5.53;1.55;;;;;15.90;98074.00;;;;10362977;28;20225;-85
2024/03/26 16:29:24;;;;;;;4.68;1.50;;;;;15.70;98074.00;;;;10374240;28;20230;-85
2024/03/26 16:34:31;;;;;;;5.10;1.38;;;;;15.60;98082.00;;;;10354462;28;20224;-84
2024/03/26 16:39:33;;;;;;;3.88;1.33;;;;;15.50;98081.00;;;;10362746;28;20257;-86
2024/03/26 16:44:35;;;;;;;4.65;1.58;;;;;15.40;98073.00;;;;10381739;28;20239;-85
2024/03/26 16:49:40;;;;;;;4.45;1.67;;;;;15.30;98075.00;;;;10370521;28;20230;-85
2024/03/26 16:54:43;;;;;;;1.58;1.08;;;;;15.20;98074.00;;;;10351829;28;20800;-86
2024/03/26 16:59:44;;;;;;;4.35;1.60;;;;;15.00;98069.00;;;;10369451;28;20249;-85
2024/03/26 17:04:45;;;;;;;4.22;1.92;;;;;14.90;98068.00;;;;10336587;28;20238;-85
2024/03/26 17:09:48;;;;;;;6.53;4.90;;;;;14.80;98070.00;;;;10348946;28;20284;-83
2024/03/26 17:14:49;;;;;;;4.22;1.40;;;;;14.70;98066.00;;;;10363296;28;20235;-83
2024/03/26 17:19:51;;;;;;;3.73;2.20;;;;;14.60;98084.00;;;;10384047;28;20226;-84
2024/03/26 17:24:56;;;;;;;3.25;1.08;;;;;14.50;98073.00;;;;10362270;28;20771;-83
2024/03/26 17:29:57;;;;;;;3.00;1.65;;;;;14.50;98064.00;;;;10380845;28;20254;-83
2024/03/26 17:34:59;;;;;;;5.35;2.50;;;;;14.40;98062.00;;;;10376515;28;20229;-83
2024/03/26 17:40:00;;;;;;;3.13;2.03;;;;;14.30;98059.00;;;;10356490;28;20305;-83
2024/03/26 17:45:02;;;;;;;5.05;2.05;;;;;14.30;98052.00;;;;10372564;28;20214;-84
2024/03/26 17:50:04;;;;;;;3.67;2.03;;;;;14.20;98052.00;;;;10373705;28;20227;-82
2024/03/26 17:55:23;;;;;;;4.20;2.17;;;;;14.00;98057.00;;;;10375898;28;20318;-84
2024/03/26 18:00:24;;;;;;;4.30;2.30;;;;;13.90;98047.00;;;;10357117;28;20219;-84
2024/03/26 18:05:25;;;;;;;8.87;4.23;;;;;13.70;98048.00;;;;10368433;28;20306;-85
2024/03/26 18:10:27;;;;;;;5.70;2.50;;;;;13.50;98046.00;;;;10383319;28;20226;-84
2024/03/26 18:15:29;;;;;;;7.13;3.83;;;;;13.40;98041.00;;;;10389556;28;20306;-85
2024/03/26 18:20:36;;;;;;;2.97;1.52;;;;;13.30;98047.00;;;;10401322;28;20250;-84
2024/03/26 18:25:40;;;;;;;2.80;1.77;;;;;13.20;98058.00;;;;10344178;28;20315;-83
2024/03/26 18:30:53;;;;;;;2.63;1.70;;;;;13.30;98052.00;;;;10381022;28;20257;-83
2024/03/26 18:36:02;;;;;;;4.63;1.90;;;;;13.30;98050.00;;;;10371980;28;20224;-83
2024/03/26 18:41:07;;;;;;;5.38;2.25;;;;;13.20;98056.00;;;;10363035;28;20839;-83
2024/03/26 18:46:13;;;;;;;4.83;2.07;;;;;13.20;98054.00;;;;10354525;28;21015;-84
2024/03/26 18:51:14;;;;;;;3.77;1.60;;;;;13.20;98051.00;;;;10381146;28;20268;-83
2024/03/26 18:56:16;;;;;;;6.63;2.40;;;;;13.20;98062.00;;;;10338506;28;20228;-83
2024/03/26 19:01:22;;;;;;;11.10;2.90;;;;;13.30;98062.00;;;;10356631;28;20227;-83
2024/03/26 19:06:23;;;;;;;4.17;1.93;;;;;13.30;98071.00;;;;10347176;28;20238;-83
2024/03/26 19:11:25;;;;;;;5.32;1.95;;;;;13.40;98067.00;;;;10340087;28;20230;-82
2024/03/26 19:16:27;;;;;;;5.67;2.20;;;;;13.50;98063.00;;;;10347777;28;20306;-83
2024/03/26 19:21:28;;;;;;;6.27;2.13;;;;;13.40;98061.00;;;;10328337;28;20790;-83
2024/03/26 19:26:29;;;;;;;6.30;2.53;;;;;13.40;98061.00;;;;10337477;28;20301;-82
2024/03/26 19:31:30;;;;;;;6.47;2.10;;;;;13.30;98068.00;;;;10319904;28;20302;-83
2024/03/26 19:36:31;;;;;;;4.93;1.90;;;;;13.20;98076.00;;;;10312116;28;20346;-83
2024/03/26 19:41:32;;;;;;;11.03;2.43;;;;;13.00;98072.00;;;;10316102;28;20278;-82
2024/03/26 19:46:33;;;;;;;4.00;1.37;;;;;13.00;98069.00;;;;10320810;28;20226;-84
2024/03/26 19:51:37;;;;;;;4.63;1.77;;;;;13.10;98078.00;;;;10332764;28;20227;-80
2024/03/26 19:56:38;;;;;;;8.43;1.47;;;;;13.10;98066.00;;;;10320456;28;20228;-80
2024/03/26 20:01:39;;;;;;;4.67;1.63;;;;;13.10;98072.00;;;;10346781;28;20227;-80
2024/03/26 20:06:40;;;;;;;4.23;1.70;;;;;13.20;98071.00;;;;10361423;28;20214;-79
2024/03/26 20:11:42;;;;;;;6.33;1.73;;;;;13.20;98077.00;;;;10330764;28;20262;-80
2024/03/26 20:16:43;;;;;;;3.93;1.30;;;;;13.20;98080.00;;;;10327895;28;20227;-79
2024/03/26 20:21:52;;;;;;;6.33;1.47;;;;;13.00;98080.00;;;;10355507;28;20245;-80
2024/03/26 20:26:54;;;;;;;2.33;1.50;;;;;12.90;98082.00;;;;10353308;28;20223;-81
2024/03/26 20:31:55;;;;;;;5.93;1.70;;;;;12.70;98078.00;;;;10339942;28;20677;-80
2024/03/26 20:36:58;;;;;;;5.17;1.40;;;;;12.60;98076.00;;;;10353568;28;20222;-80
2024/03/26 20:41:59;;;;;;;9.33;2.70;;;;;12.60;98074.00;;;;10363242;28;20742;-81
2024/03/26 20:47:01;;;;;;;7.23;1.50;;;;;12.50;98072.00;;;;10377937;28;20253;-80
2024/03/26 20:52:02;;;;;;;6.93;1.80;;;;;12.40;98062.00;;;;10387087;28;20258;-81
2024/03/26 20:57:06;;;;;;;4.83;1.73;;;;;12.40;98063.00;;;;10356758;28;20301;-79
2024/03/26 21:02:07;;;;;;;2.83;1.50;;;;;12.30;98068.00;;;;10386674;28;20233;-80
2024/03/26 21:07:08;;;;;;;5.57;1.40;;;;;12.40;98061.00;;;;10360769;28;20896;-80
2024/03/26 21:12:09;;;;;;;3.40;1.57;;;;;12.30;98053.00;;;;10358039;28;20222;-80
2024/03/26 21:17:15;;;;;;;3.63;1.90;;;;;12.30;98054.00;;;;10370613;28;20847;-80
2024/03/26 21:22:16;;;;;;;6.93;2.17;;;;;12.30;98046.00;;;;10394802;28;20251;-80
2024/03/26 21:27:18;;;;;;;6.17;2.20;;;;;12.30;98049.00;;;;10329963;28;20255;-80
2024/03/26 21:32:19;;;;;;;12.47;2.27;;;;;12.20;98038.00;;;;10324567;28;20231;-80
2024/03/26 21:37:20;;;;;;;4.17;2.20;;;;;12.00;98033.00;;;;10379804;28;20235;-81
2024/03/26 21:42:22;;;;;;;7.27;2.33;;;;;12.00;98021.00;;;;10362846;28;20996;-80
2024/03/26 21:47:23;;;;;;;4.57;2.30;;;;;12.00;98008.00;;;;10390018;28;20272;-80
2024/03/26 21:52:24;;;;;;;4.13;2.27;;;;;12.00;98021.00;;;;10389552;28;20678;-81
2024/03/26 21:57:25;;;;;;;4.83;2.03;;;;;12.00;98008.00;;;;10368721;28;20256;-82
2024/03/26 22:02:26;;;;;;;5.87;2.03;;;;;12.00;97999.00;;;;10358338;28;20670;-79
2024/03/26 22:07:27;;;;;;;7.20;2.30;;;;;12.00;98005.00;;;;10358948;28;20326;-80
2024/03/26 22:12:28;;;;;;;3.23;1.63;;;;;12.10;98007.00;;;;10367540;28;20302;-83
2024/03/26 22:17:30;;;;;;;4.90;2.03;;;;;12.10;98005.00;;;;10364376;28;20314;-83
2024/03/26 22:22:31;;;;;;;6.93;1.97;;;;;12.20;98000.00;;;;10374644;28;20214;-84
2024/03/26 22:27:32;;;;;;;2.63;1.77;;;;;12.20;97986.00;;;;10359757;28;20268;-83
2024/03/26 22:32:34;;;;;;;2.80;1.50;;;;;12.20;97994.00;;;;10364088;28;20227;-82
2024/03/26 22:37:35;;;;;;;5.40;2.40;;;;;12.20;97990.00;;;;10380294;28;20264;-82
2024/03/26 22:42:38;;;;;;;4.70;1.83;;;;;12.20;97983.00;;;;10375508;28;20227;-83
2024/03/26 22:47:39;;;;;;;4.63;1.80;;;;;12.20;97986.00;;;;10364892;28;20346;-83
2024/03/26 22:52:40;;;;;;;3.07;1.80;;;;;12.20;97978.00;;;;10388364;28;20226;-83
2024/03/26 22:57:41;;;;;;;5.83;1.40;;;;;12.20;97974.00;;;;10368384;28;20230;-83
2024/03/26 23:02:43;;;;;;;2.93;1.57;;;;;12.20;97969.00;;;;10380466;28;20298;-83
2024/03/26 23:07:44;;;;;;;2.53;1.50;;;;;12.20;97970.00;;;;10373583;28;20238;-83
2024/03/26 23:12:45;;;;;;;3.77;1.67;;;;;12.20;97964.00;;;;10382564;28;20231;-82
2024/03/26 23:17:47;;;;;;;3.37;1.70;;;;;12.20;97946.00;;;;10381193;28;20219;-82
2024/03/26 23:22:49;;;;;;;4.17;1.33;;;;;12.20;97948.00;;;;10377848;28;20365;-87
2024/03/26 23:27:50;;;;;;;3.73;1.50;;;;;12.10;97940.00;;;;10367599;28;20535;-87
2024/03/26 23:32:54;;;;;;;2.50;1.80;;;;;12.10;97933.00;;;;10379952;28;20223;-86
2024/03/26 23:37:56;;;;;;;4.47;1.70;;;;;12.10;97926.00;;;;10354767;28;20231;-86
2024/03/26 23:42:57;;;;;;;5.43;1.63;;;;;12.00;97929.00;;;;10388968;28;20222;-87
2024/03/26 23:47:58;;;;;;;3.43;1.10;;;;;11.90;97928.00;;;;10355260;28;20227;-85
2024/03/26 23:53:00;;;;;;;2.60;1.40;;;;;11.80;97932.00;;;;10333000;28;20220;-86
2024/03/26 23:58:01;;;;;;;2.27;1.20;;;;;11.70;97929.00;;;;10321807;28;20235;-85
